sensor_id;sensor_type;location;lat;lon;timestamp;temperature;humidity
77052;SHT30;65980;44.898;8.602;2023-02-15T00:00:12;4.13;72.65
77052;SHT30;65980;44.898;8.602;2023-02-15T00:03:16;3.92;73.62
77052;SHT30;65980;44.898;8.602;2023-02-15T00:06:21;3.79;74.09
77052;SHT30;65980;44.898;8.602;2023-02-15T00:09:26;3.83;73.90
77052;SHT30;65980;44.898;8.602;2023-02-15T00:12:30;4.06;73.62
77052;SHT30;65980;44.898;8.602;2023-02-15T00:15:35;4.10;73.22
77052;SHT30;65980;44.898;8.602;2023-02-15T00:18:39;4.03;73.05
77052;SHT30;65980;44.898;8.602;2023-02-15T00:21:43;4.03;73.42
77052;SHT30;65980;44.898;8.602;2023-02-15T00:24:50;4.20;72.93
77052;SHT30;65980;44.898;8.602;2023-02-15T00:27:54;4.33;72.11
77052;SHT30;65980;44.898;8.602;2023-02-15T00:31:02;4.17;72.44
77052;SHT30;65980;44.898;8.602;2023-02-15T00:34:09;3.93;72.92
77052;SHT30;65980;44.898;8.602;2023-02-15T00:37:14;3.48;74.35
77052;SHT30;65980;44.898;8.602;2023-02-15T00:40:19;3.26;74.78
77052;SHT30;65980;44.898;8.602;2023-02-15T00:43:23;3.27;74.85
77052;SHT30;65980;44.898;8.602;2023-02-15T00:46:27;3.51;74.47
77052;SHT30;65980;44.898;8.602;2023-02-15T00:49:33;3.42;74.92
77052;SHT30;65980;44.898;8.602;2023-02-15T00:52:37;3.27;75.17
77052;SHT30;65980;44.898;8.602;2023-02-15T00:55:41;3.06;75.69
77052;SHT30;65980;44.898;8.602;2023-02-15T00:58:45;3.10;75.89
77052;SHT30;65980;44.898;8.602;2023-02-15T01:01:49;3.20;75.81
77052;SHT30;65980;44.898;8.602;2023-02-15T01:04:54;3.16;75.17
77052;SHT30;65980;44.898;8.602;2023-02-15T01:08:00;3.14;76.19
77052;SHT30;65980;44.898;8.602;2023-02-15T01:11:06;3.13;75.59
77052;SHT30;65980;44.898;8.602;2023-02-15T01:14:10;3.03;75.10
77052;SHT30;65980;44.898;8.602;2023-02-15T01:17:48;2.93;75.55
77052;SHT30;65980;44.898;8.602;2023-02-15T01:21:12;2.82;75.89
77052;SHT30;65980;44.898;8.602;2023-02-15T01:24:19;2.71;76.18
77052;SHT30;65980;44.898;8.602;2023-02-15T01:27:26;2.75;76.05
77052;SHT30;65980;44.898;8.602;2023-02-15T01:30:30;2.62;76.31
77052;SHT30;65980;44.898;8.602;2023-02-15T01:33:36;2.62;76.72
77052;SHT30;65980;44.898;8.602;2023-02-15T01:36:42;2.65;76.24
77052;SHT30;65980;44.898;8.602;2023-02-15T01:39:47;2.45;76.27
77052;SHT30;65980;44.898;8.602;2023-02-15T01:42:51;2.57;76.51
77052;SHT30;65980;44.898;8.602;2023-02-15T01:45:56;2.66;75.68
77052;SHT30;65980;44.898;8.602;2023-02-15T01:49:10;2.42;76.28
77052;SHT30;65980;44.898;8.602;2023-02-15T01:52:16;2.33;76.88
77052;SHT30;65980;44.898;8.602;2023-02-15T01:55:22;2.44;76.48
77052;SHT30;65980;44.898;8.602;2023-02-15T01:58:27;2.38;76.54
77052;SHT30;65980;44.898;8.602;2023-02-15T02:01:37;2.37;77.34
77052;SHT30;65980;44.898;8.602;2023-02-15T02:04:43;2.55;76.44
77052;SHT30;65980;44.898;8.602;2023-02-15T02:07:50;2.69;76.30
77052;SHT30;65980;44.898;8.602;2023-02-15T02:10:56;2.72;75.33
77052;SHT30;65980;44.898;8.602;2023-02-15T02:14:00;2.64;76.56
77052;SHT30;65980;44.898;8.602;2023-02-15T02:40:15;2.23;77.45
77052;SHT30;65980;44.898;8.602;2023-02-15T02:43:28;2.24;77.23
77052;SHT30;65980;44.898;8.602;2023-02-15T02:49:52;2.40;76.77
77052;SHT30;65980;44.898;8.602;2023-02-15T02:52:57;2.51;76.75
77052;SHT30;65980;44.898;8.602;2023-02-15T02:59:08;2.41;76.65
77052;SHT30;65980;44.898;8.602;2023-02-15T03:02:16;2.41;77.32
77052;SHT30;65980;44.898;8.602;2023-02-15T03:05:22;2.34;77.12
77052;SHT30;65980;44.898;8.602;2023-02-15T03:08:34;2.33;77.10
77052;SHT30;65980;44.898;8.602;2023-02-15T03:11:41;2.41;77.16
77052;SHT30;65980;44.898;8.602;2023-02-15T03:14:48;2.59;76.45
77052;SHT30;65980;44.898;8.602;2023-02-15T03:17:55;2.74;74.96
77052;SHT30;65980;44.898;8.602;2023-02-15T03:21:04;2.58;76.07
77052;SHT30;65980;44.898;8.602;2023-02-15T03:24:19;2.50;76.29
77052;SHT30;65980;44.898;8.602;2023-02-15T03:27:31;2.52;76.66
77052;SHT30;65980;44.898;8.602;2023-02-15T03:30:39;2.64;75.48
77052;SHT30;65980;44.898;8.602;2023-02-15T03:33:53;2.74;74.90
77052;SHT30;65980;44.898;8.602;2023-02-15T03:37:10;2.29;76.05
77052;SHT30;65980;44.898;8.602;2023-02-15T03:40:26;2.42;75.08
77052;SHT30;65980;44.898;8.602;2023-02-15T03:43:56;2.69;75.39
77052;SHT30;65980;44.898;8.602;2023-02-15T03:47:04;3.03;73.87
77052;SHT30;65980;44.898;8.602;2023-02-15T03:50:13;2.50;76.05
77052;SHT30;65980;44.898;8.602;2023-02-15T03:53:42;2.45;76.21
77052;SHT30;65980;44.898;8.602;2023-02-15T03:56:48;2.52;75.95
77052;SHT30;65980;44.898;8.602;2023-02-15T04:00:19;2.51;75.68
77052;SHT30;65980;44.898;8.602;2023-02-15T04:03:57;2.24;76.83
77052;SHT30;65980;44.898;8.602;2023-02-15T04:07:05;2.12;77.10
77052;SHT30;65980;44.898;8.602;2023-02-15T04:10:10;2.06;77.54
77052;SHT30;65980;44.898;8.602;2023-02-15T04:13:33;1.83;78.33
77052;SHT30;65980;44.898;8.602;2023-02-15T04:16:37;1.69;78.39
77052;SHT30;65980;44.898;8.602;2023-02-15T04:19:41;1.65;79.40
77052;SHT30;65980;44.898;8.602;2023-02-15T04:23:07;1.79;79.01
77052;SHT30;65980;44.898;8.602;2023-02-15T04:26:30;1.74;78.42
77052;SHT30;65980;44.898;8.602;2023-02-15T04:29:34;1.76;78.14
77052;SHT30;65980;44.898;8.602;2023-02-15T04:32:39;1.68;78.78
77052;SHT30;65980;44.898;8.602;2023-02-15T04:35:43;1.58;78.91
77052;SHT30;65980;44.898;8.602;2023-02-15T04:38:48;1.46;79.57
77052;SHT30;65980;44.898;8.602;2023-02-15T04:41:52;1.61;78.41
77052;SHT30;65980;44.898;8.602;2023-02-15T04:44:59;1.57;78.93
77052;SHT30;65980;44.898;8.602;2023-02-15T04:48:03;1.39;79.08
77052;SHT30;65980;44.898;8.602;2023-02-15T04:51:08;1.31;79.80
77052;SHT30;65980;44.898;8.602;2023-02-15T04:54:13;1.29;80.12
77052;SHT30;65980;44.898;8.602;2023-02-15T04:57:18;1.37;79.81
77052;SHT30;65980;44.898;8.602;2023-02-15T05:00:22;1.46;79.37
77052;SHT30;65980;44.898;8.602;2023-02-15T05:03:26;1.39;79.64
77052;SHT30;65980;44.898;8.602;2023-02-15T05:06:31;1.40;79.83
77052;SHT30;65980;44.898;8.602;2023-02-15T05:09:35;1.54;79.32
77052;SHT30;65980;44.898;8.602;2023-02-15T05:12:39;1.62;78.82
77052;SHT30;65980;44.898;8.602;2023-02-15T05:15:49;1.69;78.13
77052;SHT30;65980;44.898;8.602;2023-02-15T05:18:57;1.57;79.46
77052;SHT30;65980;44.898;8.602;2023-02-15T05:22:04;1.78;77.65
77052;SHT30;65980;44.898;8.602;2023-02-15T05:25:08;1.81;77.02
77052;SHT30;65980;44.898;8.602;2023-02-15T05:28:31;1.31;77.89
77052;SHT30;65980;44.898;8.602;2023-02-15T05:31:35;1.65;77.11
77052;SHT30;65980;44.898;8.602;2023-02-15T05:34:39;1.96;75.68
77052;SHT30;65980;44.898;8.602;2023-02-15T05:37:46;1.92;75.28
77052;SHT30;65980;44.898;8.602;2023-02-15T05:40:51;2.29;73.40
77052;SHT30;65980;44.898;8.602;2023-02-15T05:43:55;1.75;76.84
77052;SHT30;65980;44.898;8.602;2023-02-15T05:47:00;1.78;76.43
77052;SHT30;65980;44.898;8.602;2023-02-15T05:50:07;1.85;76.60
77052;SHT30;65980;44.898;8.602;2023-02-15T05:53:12;1.59;77.67
77052;SHT30;65980;44.898;8.602;2023-02-15T05:56:20;1.64;77.69
77052;SHT30;65980;44.898;8.602;2023-02-15T05:59:25;1.33;78.84
77052;SHT30;65980;44.898;8.602;2023-02-15T06:02:36;1.50;78.55
77052;SHT30;65980;44.898;8.602;2023-02-15T06:05:41;1.59;77.54
77052;SHT30;65980;44.898;8.602;2023-02-15T06:08:49;1.65;77.67
77052;SHT30;65980;44.898;8.602;2023-02-15T06:11:55;1.59;77.45
77052;SHT30;65980;44.898;8.602;2023-02-15T06:15:02;1.41;78.63
77052;SHT30;65980;44.898;8.602;2023-02-15T06:18:10;1.19;80.79
77052;SHT30;65980;44.898;8.602;2023-02-15T06:21:26;1.30;80.15
77052;SHT30;65980;44.898;8.602;2023-02-15T06:24:30;1.13;80.27
77052;SHT30;65980;44.898;8.602;2023-02-15T06:27:34;1.03;80.32
77052;SHT30;65980;44.898;8.602;2023-02-15T06:30:38;1.02;80.29
77052;SHT30;65980;44.898;8.602;2023-02-15T06:33:43;1.09;80.02
77052;SHT30;65980;44.898;8.602;2023-02-15T06:36:47;1.07;79.92
77052;SHT30;65980;44.898;8.602;2023-02-15T06:39:53;1.16;79.41
77052;SHT30;65980;44.898;8.602;2023-02-15T06:42:58;1.19;79.03
77052;SHT30;65980;44.898;8.602;2023-02-15T06:46:03;1.27;79.35
77052;SHT30;65980;44.898;8.602;2023-02-15T06:49:07;1.41;79.05
77052;SHT30;65980;44.898;8.602;2023-02-15T06:52:15;1.62;77.98
77052;SHT30;65980;44.898;8.602;2023-02-15T06:55:25;1.72;77.25
77052;SHT30;65980;44.898;8.602;2023-02-15T06:58:44;1.59;77.37
77052;SHT30;65980;44.898;8.602;2023-02-15T07:02:03;1.71;76.96
77052;SHT30;65980;44.898;8.602;2023-02-15T07:09:42;1.31;77.47
77052;SHT30;65980;44.898;8.602;2023-02-15T07:13:49;1.33;78.75
77052;SHT30;65980;44.898;8.602;2023-02-15T07:17:41;1.58;77.27
77052;SHT30;65980;44.898;8.602;2023-02-15T07:21:40;1.99;79.20
77052;SHT30;65980;44.898;8.602;2023-02-15T07:25:02;2.52;76.51
77052;SHT30;65980;44.898;8.602;2023-02-15T07:28:29;2.81;74.04
77052;SHT30;65980;44.898;8.602;2023-02-15T07:32:27;2.93;75.14
77052;SHT30;65980;44.898;8.602;2023-02-15T07:35:46;3.28;74.13
77052;SHT30;65980;44.898;8.602;2023-02-15T07:38:57;3.96;71.84
77052;SHT30;65980;44.898;8.602;2023-02-15T07:42:05;4.09;70.29
77052;SHT30;65980;44.898;8.602;2023-02-15T07:45:35;3.96;71.07
77052;SHT30;65980;44.898;8.602;2023-02-15T07:48:40;4.09;70.96
77052;SHT30;65980;44.898;8.602;2023-02-15T07:51:46;4.30;68.89
77052;SHT30;65980;44.898;8.602;2023-02-15T07:54:51;4.57;69.66
77052;SHT30;65980;44.898;8.602;2023-02-15T07:57:56;4.87;66.06
77052;SHT30;65980;44.898;8.602;2023-02-15T08:01:12;5.47;65.63
77052;SHT30;65980;44.898;8.602;2023-02-15T08:04:18;6.10;63.26
77052;SHT30;65980;44.898;8.602;2023-02-15T08:07:25;5.89;63.84
77052;SHT30;65980;44.898;8.602;2023-02-15T08:10:37;6.07;64.19
77052;SHT30;65980;44.898;8.602;2023-02-15T08:14:07;6.06;63.67
77052;SHT30;65980;44.898;8.602;2023-02-15T08:17:12;6.25;62.49
77052;SHT30;65980;44.898;8.602;2023-02-15T08:20:17;6.85;60.49
77052;SHT30;65980;44.898;8.602;2023-02-15T08:23:22;6.16;61.36
77052;SHT30;65980;44.898;8.602;2023-02-15T08:26:26;5.68;65.44
77052;SHT30;65980;44.898;8.602;2023-02-15T08:33:54;6.82;62.20
77052;SHT30;65980;44.898;8.602;2023-02-15T08:36:59;7.36;60.17
77052;SHT30;65980;44.898;8.602;2023-02-15T08:40:04;7.79;59.40
77052;SHT30;65980;44.898;8.602;2023-02-15T08:43:09;7.65;59.95
77052;SHT30;65980;44.898;8.602;2023-02-15T08:46:13;7.34;60.67
77052;SHT30;65980;44.898;8.602;2023-02-15T08:49:20;7.44;60.83
77052;SHT30;65980;44.898;8.602;2023-02-15T08:52:25;7.55;60.60
77052;SHT30;65980;44.898;8.602;2023-02-15T08:55:32;7.73;60.11
77052;SHT30;65980;44.898;8.602;2023-02-15T08:59:05;7.98;59.19
77052;SHT30;65980;44.898;8.602;2023-02-15T09:02:18;8.38;58.64
77052;SHT30;65980;44.898;8.602;2023-02-15T09:05:24;9.63;54.40
77052;SHT30;65980;44.898;8.602;2023-02-15T09:08:41;10.03;52.99
77052;SHT30;65980;44.898;8.602;2023-02-15T09:11:48;10.73;51.86
77052;SHT30;65980;44.898;8.602;2023-02-15T09:14:52;10.99;50.06
77052;SHT30;65980;44.898;8.602;2023-02-15T09:17:57;10.92;51.35
77052;SHT30;65980;44.898;8.602;2023-02-15T09:21:08;10.87;52.38
77052;SHT30;65980;44.898;8.602;2023-02-15T09:24:13;11.29;50.06
77052;SHT30;65980;44.898;8.602;2023-02-15T09:27:18;11.91;48.49
77052;SHT30;65980;44.898;8.602;2023-02-15T09:30:22;12.44;46.73
77052;SHT30;65980;44.898;8.602;2023-02-15T09:33:26;11.69;48.80
77052;SHT30;65980;44.898;8.602;2023-02-15T09:36:33;10.90;51.26
77052;SHT30;65980;44.898;8.602;2023-02-15T09:39:37;11.70;49.69
77052;SHT30;65980;44.898;8.602;2023-02-15T09:47:31;12.87;47.23
77052;SHT30;65980;44.898;8.602;2023-02-15T10:00:38;12.14;49.36
77052;SHT30;65980;44.898;8.602;2023-02-15T10:07:13;13.74;45.24
77052;SHT30;65980;44.898;8.602;2023-02-15T10:10:31;12.87;47.48
77052;SHT30;65980;44.898;8.602;2023-02-15T10:13:40;12.82;48.04
77052;SHT30;65980;44.898;8.602;2023-02-15T10:30:08;16.10;41.58
77052;SHT30;65980;44.898;8.602;2023-02-15T11:13:23;19.78;33.96
77052;SHT30;65980;44.898;8.602;2023-02-15T11:16:32;19.58;33.97
77052;SHT30;65980;44.898;8.602;2023-02-15T11:20:00;18.27;36.56
77052;SHT30;65980;44.898;8.602;2023-02-15T11:23:12;18.25;37.99
77052;SHT30;65980;44.898;8.602;2023-02-15T11:33:31;18.31;35.35
77052;SHT30;65980;44.898;8.602;2023-02-15T11:41:08;19.21;34.34
77052;SHT30;65980;44.898;8.602;2023-02-15T11:44:25;19.98;33.23
77052;SHT30;65980;44.898;8.602;2023-02-15T11:47:35;19.10;33.30
77052;SHT30;65980;44.898;8.602;2023-02-15T11:50:42;18.70;33.60
77052;SHT30;65980;44.898;8.602;2023-02-15T11:53:48;20.28;32.83
77052;SHT30;65980;44.898;8.602;2023-02-15T11:56:52;21.34;30.37
77052;SHT30;65980;44.898;8.602;2023-02-15T12:00:00;24.55;27.01
77052;SHT30;65980;44.898;8.602;2023-02-15T12:06:51;23.75;27.76
77052;SHT30;65980;44.898;8.602;2023-02-15T12:09:59;21.85;30.74
77052;SHT30;65980;44.898;8.602;2023-02-15T12:13:13;20.93;31.75
77052;SHT30;65980;44.898;8.602;2023-02-15T12:16:17;24.08;27.84
77052;SHT30;65980;44.898;8.602;2023-02-15T12:19:32;24.23;26.60
77052;SHT30;65980;44.898;8.602;2023-02-15T12:22:36;24.41;26.70
77052;SHT30;65980;44.898;8.602;2023-02-15T12:29:00;23.44;28.61
77052;SHT30;65980;44.898;8.602;2023-02-15T12:32:18;23.38;29.82
77052;SHT30;65980;44.898;8.602;2023-02-15T12:35:28;23.38;28.35
77052;SHT30;65980;44.898;8.602;2023-02-15T12:38:32;23.30;28.70
77052;SHT30;65980;44.898;8.602;2023-02-15T12:41:45;22.83;29.11
77052;SHT30;65980;44.898;8.602;2023-02-15T12:45:00;22.49;29.65
77052;SHT30;65980;44.898;8.602;2023-02-15T12:51:29;21.71;30.96
77052;SHT30;65980;44.898;8.602;2023-02-15T12:54:41;20.03;32.53
77052;SHT30;65980;44.898;8.602;2023-02-15T12:57:47;19.21;33.80
77052;SHT30;65980;44.898;8.602;2023-02-15T13:01:16;18.95;34.33
77052;SHT30;65980;44.898;8.602;2023-02-15T13:07:23;17.66;36.84
77052;SHT30;65980;44.898;8.602;2023-02-15T13:10:30;18.11;36.59
77052;SHT30;65980;44.898;8.602;2023-02-15T13:16:57;18.13;36.17
77052;SHT30;65980;44.898;8.602;2023-02-15T13:20:06;17.62;36.31
77052;SHT30;65980;44.898;8.602;2023-02-15T13:23:29;17.21;38.51
77052;SHT30;65980;44.898;8.602;2023-02-15T13:26:35;17.18;37.66
77052;SHT30;65980;44.898;8.602;2023-02-15T13:29:39;17.93;37.73
77052;SHT30;65980;44.898;8.602;2023-02-15T13:32:44;18.44;36.01
77052;SHT30;65980;44.898;8.602;2023-02-15T13:36:14;18.92;37.24
77052;SHT30;65980;44.898;8.602;2023-02-15T13:42:41;19.66;34.44
77052;SHT30;65980;44.898;8.602;2023-02-15T13:49:09;19.69;34.42
77052;SHT30;65980;44.898;8.602;2023-02-15T13:55:31;19.59;33.93
77052;SHT30;65980;44.898;8.602;2023-02-15T14:12:31;19.52;33.41
77052;SHT30;65980;44.898;8.602;2023-02-15T14:15:47;19.32;33.55
77052;SHT30;65980;44.898;8.602;2023-02-15T14:18:58;19.10;34.56
77052;SHT30;65980;44.898;8.602;2023-02-15T14:25:42;19.30;34.99
77052;SHT30;65980;44.898;8.602;2023-02-15T14:29:45;19.31;34.24
77052;SHT30;65980;44.898;8.602;2023-02-15T14:36:04;19.57;33.69
77052;SHT30;65980;44.898;8.602;2023-02-15T14:42:42;19.31;35.00
77052;SHT30;65980;44.898;8.602;2023-02-15T14:45:58;19.27;34.83
77052;SHT30;65980;44.898;8.602;2023-02-15T14:49:10;19.30;34.44
77052;SHT30;65980;44.898;8.602;2023-02-15T14:52:16;20.31;32.84
77052;SHT30;65980;44.898;8.602;2023-02-15T14:55:34;20.61;32.45
77052;SHT30;65980;44.898;8.602;2023-02-15T15:01:58;19.78;34.07
77052;SHT30;65980;44.898;8.602;2023-02-15T15:05:08;19.13;34.31
77052;SHT30;65980;44.898;8.602;2023-02-15T15:08:28;18.86;35.10
77052;SHT30;65980;44.898;8.602;2023-02-15T15:11:38;18.49;35.53
77052;SHT30;65980;44.898;8.602;2023-02-15T15:14:42;18.34;36.40
77052;SHT30;65980;44.898;8.602;2023-02-15T15:17:55;18.27;37.13
77052;SHT30;65980;44.898;8.602;2023-02-15T15:21:02;18.24;36.57
77052;SHT30;65980;44.898;8.602;2023-02-15T15:24:07;18.27;37.05
77052;SHT30;65980;44.898;8.602;2023-02-15T15:43:27;17.78;38.93
77052;SHT30;65980;44.898;8.602;2023-02-15T15:49:45;17.13;39.84
77052;SHT30;65980;44.898;8.602;2023-02-15T15:52:55;17.02;40.35
77052;SHT30;65980;44.898;8.602;2023-02-15T15:56:02;16.48;41.82
77052;SHT30;65980;44.898;8.602;2023-02-15T15:59:07;16.70;41.82
77052;SHT30;65980;44.898;8.602;2023-02-15T16:02:16;16.66;41.58
77052;SHT30;65980;44.898;8.602;2023-02-15T16:05:21;16.59;42.51
77052;SHT30;65980;44.898;8.602;2023-02-15T16:08:26;16.53;42.75
77052;SHT30;65980;44.898;8.602;2023-02-15T16:11:32;16.44;42.61
77052;SHT30;65980;44.898;8.602;2023-02-15T16:14:37;16.34;43.27
77052;SHT30;65980;44.898;8.602;2023-02-15T16:17:42;16.21;42.44
77052;SHT30;65980;44.898;8.602;2023-02-15T16:30:27;15.83;42.91
77052;SHT30;65980;44.898;8.602;2023-02-15T16:33:35;15.70;42.90
77052;SHT30;65980;44.898;8.602;2023-02-15T16:36:40;15.55;44.02
77052;SHT30;65980;44.898;8.602;2023-02-15T16:39:45;15.44;43.51
77052;SHT30;65980;44.898;8.602;2023-02-15T16:42:53;15.25;43.68
77052;SHT30;65980;44.898;8.602;2023-02-15T16:46:02;15.10;44.12
77052;SHT30;65980;44.898;8.602;2023-02-15T16:49:13;15.00;44.43
77052;SHT30;65980;44.898;8.602;2023-02-15T16:52:19;14.91;45.93
77052;SHT30;65980;44.898;8.602;2023-02-15T16:55:28;14.84;45.16
77052;SHT30;65980;44.898;8.602;2023-02-15T16:58:44;14.76;45.42
77052;SHT30;65980;44.898;8.602;2023-02-15T17:01:49;14.71;45.85
77052;SHT30;65980;44.898;8.602;2023-02-15T17:05:07;14.66;45.98
77052;SHT30;65980;44.898;8.602;2023-02-15T17:08:16;14.61;45.80
77052;SHT30;65980;44.898;8.602;2023-02-15T17:11:22;14.38;46.25
77052;SHT30;65980;44.898;8.602;2023-02-15T17:14:27;14.31;48.86
77052;SHT30;65980;44.898;8.602;2023-02-15T17:17:31;14.16;47.81
77052;SHT30;65980;44.898;8.602;2023-02-15T17:20:37;14.06;48.75
77052;SHT30;65980;44.898;8.602;2023-02-15T17:23:43;13.97;48.25
77052;SHT30;65980;44.898;8.602;2023-02-15T17:26:50;13.96;48.45
77052;SHT30;65980;44.898;8.602;2023-02-15T17:30:41;13.70;48.96
77052;SHT30;65980;44.898;8.602;2023-02-15T17:33:25;13.49;50.83
77052;SHT30;65980;44.898;8.602;2023-02-15T17:36:33;13.28;51.22
77052;SHT30;65980;44.898;8.602;2023-02-15T17:39:37;13.14;50.95
77052;SHT30;65980;44.898;8.602;2023-02-15T17:42:43;13.06;51.53
77052;SHT30;65980;44.898;8.602;2023-02-15T17:45:48;12.53;52.43
77052;SHT30;65980;44.898;8.602;2023-02-15T17:48:52;12.49;53.01
77052;SHT30;65980;44.898;8.602;2023-02-15T17:51:58;12.41;53.85
77052;SHT30;65980;44.898;8.602;2023-02-15T17:55:07;12.41;52.44
77052;SHT30;65980;44.898;8.602;2023-02-15T17:58:30;12.22;54.35
77052;SHT30;65980;44.898;8.602;2023-02-15T18:01:36;12.20;55.13
77052;SHT30;65980;44.898;8.602;2023-02-15T18:05:01;12.10;55.45
77052;SHT30;65980;44.898;8.602;2023-02-15T18:08:25;12.01;55.47
77052;SHT30;65980;44.898;8.602;2023-02-15T18:11:50;12.04;55.39
77052;SHT30;65980;44.898;8.602;2023-02-15T18:14:54;12.04;55.39
77052;SHT30;65980;44.898;8.602;2023-02-15T18:17:59;12.07;54.16
77052;SHT30;65980;44.898;8.602;2023-02-15T18:21:03;11.82;55.02
77052;SHT30;65980;44.898;8.602;2023-02-15T18:24:13;10.93;57.13
77052;SHT30;65980;44.898;8.602;2023-02-15T18:27:18;10.83;57.70
77052;SHT30;65980;44.898;8.602;2023-02-15T18:30:24;10.87;58.37
77052;SHT30;65980;44.898;8.602;2023-02-15T18:33:32;10.31;59.69
77052;SHT30;65980;44.898;8.602;2023-02-15T18:36:39;10.72;58.86
77052;SHT30;65980;44.898;8.602;2023-02-15T18:39:45;10.84;58.41
77052;SHT30;65980;44.898;8.602;2023-02-15T18:42:50;10.79;58.84
77052;SHT30;65980;44.898;8.602;2023-02-15T18:45:54;10.96;57.46
77052;SHT30;65980;44.898;8.602;2023-02-15T18:48:58;10.97;56.86
77052;SHT30;65980;44.898;8.602;2023-02-15T18:52:02;10.97;58.02
77052;SHT30;65980;44.898;8.602;2023-02-15T18:55:15;11.03;56.49
77052;SHT30;65980;44.898;8.602;2023-02-15T18:58:20;11.14;56.65
77052;SHT30;65980;44.898;8.602;2023-02-15T19:01:29;11.20;57.35
77052;SHT30;65980;44.898;8.602;2023-02-15T19:04:33;11.10;57.82
77052;SHT30;65980;44.898;8.602;2023-02-15T19:07:37;11.28;56.27
77052;SHT30;65980;44.898;8.602;2023-02-15T19:10:42;11.42;54.29
77052;SHT30;65980;44.898;8.602;2023-02-15T19:13:46;11.54;52.79
77052;SHT30;65980;44.898;8.602;2023-02-15T19:16:52;11.66;52.08
77052;SHT30;65980;44.898;8.602;2023-02-15T19:19:56;11.69;51.89
77052;SHT30;65980;44.898;8.602;2023-02-15T19:23:00;11.59;52.20
77052;SHT30;65980;44.898;8.602;2023-02-15T19:26:05;11.70;51.61
77052;SHT30;65980;44.898;8.602;2023-02-15T19:29:09;11.69;51.58
77052;SHT30;65980;44.898;8.602;2023-02-15T19:32:14;11.75;51.46
77052;SHT30;65980;44.898;8.602;2023-02-15T19:35:21;11.58;51.78
77052;SHT30;65980;44.898;8.602;2023-02-15T19:38:25;11.40;52.40
77052;SHT30;65980;44.898;8.602;2023-02-15T19:41:32;11.28;52.88
77052;SHT30;65980;44.898;8.602;2023-02-15T19:44:37;11.11;53.42
77052;SHT30;65980;44.898;8.602;2023-02-15T19:47:46;10.52;55.34
77052;SHT30;65980;44.898;8.602;2023-02-15T19:50:51;10.76;54.59
77052;SHT30;65980;44.898;8.602;2023-02-15T19:53:56;10.67;54.69
77052;SHT30;65980;44.898;8.602;2023-02-15T19:57:00;10.37;55.43
77052;SHT30;65980;44.898;8.602;2023-02-15T20:00:13;9.66;58.06
77052;SHT30;65980;44.898;8.602;2023-02-15T20:03:21;9.84;57.23
77052;SHT30;65980;44.898;8.602;2023-02-15T20:06:26;9.53;58.48
77052;SHT30;65980;44.898;8.602;2023-02-15T20:09:33;9.77;58.21
77052;SHT30;65980;44.898;8.602;2023-02-15T20:12:40;10.03;56.99
77052;SHT30;65980;44.898;8.602;2023-02-15T20:15:45;10.03;57.07
77052;SHT30;65980;44.898;8.602;2023-02-15T20:18:49;10.03;57.23
77052;SHT30;65980;44.898;8.602;2023-02-15T20:21:53;9.98;57.63
77052;SHT30;65980;44.898;8.602;2023-02-15T20:24:58;9.70;57.96
77052;SHT30;65980;44.898;8.602;2023-02-15T20:28:03;9.30;60.43
77052;SHT30;65980;44.898;8.602;2023-02-15T20:31:08;8.96;61.33
77052;SHT30;65980;44.898;8.602;2023-02-15T20:34:13;9.10;61.24
77052;SHT30;65980;44.898;8.602;2023-02-15T20:37:21;9.03;61.34
77052;SHT30;65980;44.898;8.602;2023-02-15T20:40:27;9.35;60.75
77052;SHT30;65980;44.898;8.602;2023-02-15T20:43:31;9.31;60.37
77052;SHT30;65980;44.898;8.602;2023-02-15T20:46:36;9.35;60.55
77052;SHT30;65980;44.898;8.602;2023-02-15T20:49:39;9.41;60.08
77052;SHT30;65980;44.898;8.602;2023-02-15T20:52:44;9.27;60.08
77052;SHT30;65980;44.898;8.602;2023-02-15T20:55:48;8.79;62.21
77052;SHT30;65980;44.898;8.602;2023-02-15T20:58:54;8.97;61.11
77052;SHT30;65980;44.898;8.602;2023-02-15T21:05:08;8.83;62.08
77052;SHT30;65980;44.898;8.602;2023-02-15T21:08:18;8.88;62.52
77052;SHT30;65980;44.898;8.602;2023-02-15T21:11:23;8.99;61.47
77052;SHT30;65980;44.898;8.602;2023-02-15T21:14:26;8.91;62.33
77052;SHT30;65980;44.898;8.602;2023-02-15T21:17:31;9.03;62.42
77052;SHT30;65980;44.898;8.602;2023-02-15T21:20:34;8.80;64.26
77052;SHT30;65980;44.898;8.602;2023-02-15T21:23:40;8.99;62.26
77052;SHT30;65980;44.898;8.602;2023-02-15T21:26:45;9.01;64.11
77052;SHT30;65980;44.898;8.602;2023-02-15T21:29:50;9.17;64.18
77052;SHT30;65980;44.898;8.602;2023-02-15T21:32:54;8.90;64.44
77052;SHT30;65980;44.898;8.602;2023-02-15T21:35:57;9.00;63.92
77052;SHT30;65980;44.898;8.602;2023-02-15T21:39:02;9.08;63.53
77052;SHT30;65980;44.898;8.602;2023-02-15T21:42:08;8.91;64.50
77052;SHT30;65980;44.898;8.602;2023-02-15T21:45:30;9.03;64.33
77052;SHT30;65980;44.898;8.602;2023-02-15T21:48:53;8.90;64.59
77052;SHT30;65980;44.898;8.602;2023-02-15T21:51:57;8.75;66.64
77052;SHT30;65980;44.898;8.602;2023-02-15T21:55:14;8.49;67.93
77052;SHT30;65980;44.898;8.602;2023-02-15T21:58:19;8.56;66.07
77052;SHT30;65980;44.898;8.602;2023-02-15T22:01:27;8.55;67.59
77052;SHT30;65980;44.898;8.602;2023-02-15T22:04:30;8.63;67.15
77052;SHT30;65980;44.898;8.602;2023-02-15T22:07:36;8.65;66.59
77052;SHT30;65980;44.898;8.602;2023-02-15T22:10:40;8.49;67.96
77052;SHT30;65980;44.898;8.602;2023-02-15T22:13:45;8.30;67.09
77052;SHT30;65980;44.898;8.602;2023-02-15T22:16:49;8.17;68.33
77052;SHT30;65980;44.898;8.602;2023-02-15T22:19:53;8.22;68.58
77052;SHT30;65980;44.898;8.602;2023-02-15T22:22:57;8.24;69.29
77052;SHT30;65980;44.898;8.602;2023-02-15T22:26:03;8.46;67.49
77052;SHT30;65980;44.898;8.602;2023-02-15T22:29:11;8.41;68.45
77052;SHT30;65980;44.898;8.602;2023-02-15T22:32:18;8.67;67.77
77052;SHT30;65980;44.898;8.602;2023-02-15T22:35:23;8.65;68.95
77052;SHT30;65980;44.898;8.602;2023-02-15T22:38:28;8.86;67.72
77052;SHT30;65980;44.898;8.602;2023-02-15T22:41:31;8.65;67.94
77052;SHT30;65980;44.898;8.602;2023-02-15T22:44:35;8.55;68.15
77052;SHT30;65980;44.898;8.602;2023-02-15T22:47:39;8.58;68.40
77052;SHT30;65980;44.898;8.602;2023-02-15T22:50:44;8.55;67.95
77052;SHT30;65980;44.898;8.602;2023-02-15T22:53:49;8.32;69.87
77052;SHT30;65980;44.898;8.602;2023-02-15T22:56:54;8.44;68.40
77052;SHT30;65980;44.898;8.602;2023-02-15T22:59:58;7.96;69.69
77052;SHT30;65980;44.898;8.602;2023-02-15T23:06:20;8.27;68.62
77052;SHT30;65980;44.898;8.602;2023-02-15T23:09:24;8.31;69.35
77052;SHT30;65980;44.898;8.602;2023-02-15T23:12:28;8.00;70.53
77052;SHT30;65980;44.898;8.602;2023-02-15T23:15:56;8.14;69.78
77052;SHT30;65980;44.898;8.602;2023-02-15T23:19:02;8.03;71.85
77052;SHT30;65980;44.898;8.602;2023-02-15T23:22:10;8.14;70.41
77052;SHT30;65980;44.898;8.602;2023-02-15T23:25:15;8.22;70.94
77052;SHT30;65980;44.898;8.602;2023-02-15T23:28:26;8.24;71.78
77052;SHT30;65980;44.898;8.602;2023-02-15T23:31:32;7.94;73.03
77052;SHT30;65980;44.898;8.602;2023-02-15T23:34:36;8.00;71.61